sensor_id;sensor_type;location;lat;lon;timestamp;P1;durP1;ratioP1;P2;durP2;ratioP2
12756;SDS011;31601;48.042;12.240;2022-10-14T00:00:36;20.60;;;15.73;;
12756;SDS011;31601;48.042;12.240;2022-10-14T00:03:03;26.50;;;15.00;;
12756;SDS011;31601;48.042;12.240;2022-10-14T00:05:29;18.67;;;14.17;;
12756;SDS011;31601;48.042;12.240;2022-10-14T00:07:57;19.20;;;14.77;;
12756;SDS011;31601;48.042;12.240;2022-10-14T00:10:23;21.10;;;14.70;;
12756;SDS011;31601;48.042;12.240;2022-10-14T00:12:50;19.13;;;14.83;;
12756;SDS011;31601;48.042;12.240;2022-10-14T00:15:19;23.27;;;14.57;;
12756;SDS011;31601;48.042;12.240;2022-10-14T00:17:46;18.40;;;14.03;;
12756;SDS011;31601;48.042;12.240;2022-10-14T00:20:13;19.40;;;13.40;;
12756;SDS011;31601;48.042;12.240;2022-10-14T00:22:39;27.77;;;13.33;;
12756;SDS011;31601;48.042;12.240;2022-10-14T00:25:06;17.97;;;12.27;;
12756;SDS011;31601;48.042;12.240;2022-10-14T00:27:33;18.93;;;13.77;;
12756;SDS011;31601;48.042;12.240;2022-10-14T00:30:00;21.13;;;13.80;;
12756;SDS011;31601;48.042;12.240;2022-10-14T00:32:29;22.33;;;13.53;;
12756;SDS011;31601;48.042;12.240;2022-10-14T00:34:56;20.03;;;13.77;;
12756;SDS011;31601;48.042;12.240;2022-10-14T00:37:22;16.87;;;12.63;;
12756;SDS011;31601;48.042;12.240;2022-10-14T00:39:49;21.97;;;14.60;;
12756;SDS011;31601;48.042;12.240;2022-10-14T00:42:16;18.53;;;14.00;;
12756;SDS011;31601;48.042;12.240;2022-10-14T00:44:59;17.13;;;13.63;;
12756;SDS011;31601;48.042;12.240;2022-10-14T00:47:31;16.17;;;12.70;;
12756;SDS011;31601;48.042;12.240;2022-10-14T00:49:59;16.07;;;12.00;;
12756;SDS011;31601;48.042;12.240;2022-10-14T00:52:26;17.93;;;12.53;;
12756;SDS011;31601;48.042;12.240;2022-10-14T00:54:54;17.10;;;12.07;;
12756;SDS011;31601;48.042;12.240;2022-10-14T00:57:24;13.77;;;11.27;;
12756;SDS011;31601;48.042;12.240;2022-10-14T00:59:51;15.60;;;11.30;;
12756;SDS011;31601;48.042;12.240;2022-10-14T01:02:22;16.10;;;11.97;;
12756;SDS011;31601;48.042;12.240;2022-10-14T01:04:50;14.27;;;11.10;;
12756;SDS011;31601;48.042;12.240;2022-10-14T01:07:19;11.93;;;10.57;;
12756;SDS011;31601;48.042;12.240;2022-10-14T01:09:58;17.17;;;10.53;;
12756;SDS011;31601;48.042;12.240;2022-10-14T01:12:32;16.90;;;10.73;;
12756;SDS011;31601;48.042;12.240;2022-10-14T01:15:09;14.60;;;9.83;;
12756;SDS011;31601;48.042;12.240;2022-10-14T01:17:44;18.07;;;10.17;;
12756;SDS011;31601;48.042;12.240;2022-10-14T01:20:36;13.07;;;10.20;;
12756;SDS011;31601;48.042;12.240;2022-10-14T01:23:16;11.60;;;9.07;;
12756;SDS011;31601;48.042;12.240;2022-10-14T01:26:03;14.20;;;10.37;;
12756;SDS011;31601;48.042;12.240;2022-10-14T01:28:49;13.77;;;11.20;;
12756;SDS011;31601;48.042;12.240;2022-10-14T01:31:32;16.83;;;11.80;;
12756;SDS011;31601;48.042;12.240;2022-10-14T01:34:04;11.80;;;10.37;;
12756;SDS011;31601;48.042;12.240;2022-10-14T01:36:35;12.47;;;10.83;;
12756;SDS011;31601;48.042;12.240;2022-10-14T01:39:09;14.13;;;10.90;;
12756;SDS011;31601;48.042;12.240;2022-10-14T01:41:40;15.03;;;10.97;;
12756;SDS011;31601;48.042;12.240;2022-10-14T01:44:12;13.27;;;10.83;;
12756;SDS011;31601;48.042;12.240;2022-10-14T01:46:45;14.30;;;11.87;;
12756;SDS011;31601;48.042;12.240;2022-10-14T01:49:15;21.47;;;12.23;;
12756;SDS011;31601;48.042;12.240;2022-10-14T01:51:48;12.70;;;10.87;;
12756;SDS011;31601;48.042;12.240;2022-10-14T01:54:19;13.67;;;11.43;;
12756;SDS011;31601;48.042;12.240;2022-10-14T01:56:49;13.97;;;11.33;;
12756;SDS011;31601;48.042;12.240;2022-10-14T01:59:18;13.80;;;11.17;;
12756;SDS011;31601;48.042;12.240;2022-10-14T02:01:48;14.90;;;10.90;;
12756;SDS011;31601;48.042;12.240;2022-10-14T02:04:15;15.87;;;10.87;;
12756;SDS011;31601;48.042;12.240;2022-10-14T02:06:45;11.73;;;9.43;;
12756;SDS011;31601;48.042;12.240;2022-10-14T02:09:16;13.70;;;9.87;;
12756;SDS011;31601;48.042;12.240;2022-10-14T02:11:53;16.70;;;9.90;;
12756;SDS011;31601;48.042;12.240;2022-10-14T02:14:31;13.03;;;10.33;;
12756;SDS011;31601;48.042;12.240;2022-10-14T02:17:05;12.83;;;10.47;;
12756;SDS011;31601;48.042;12.240;2022-10-14T02:19:37;12.67;;;9.60;;
12756;SDS011;31601;48.042;12.240;2022-10-14T02:22:12;11.93;;;9.27;;
12756;SDS011;31601;48.042;12.240;2022-10-14T02:24:45;13.43;;;9.97;;
12756;SDS011;31601;48.042;12.240;2022-10-14T02:27:18;13.13;;;10.33;;
12756;SDS011;31601;48.042;12.240;2022-10-14T02:29:49;13.87;;;9.63;;
12756;SDS011;31601;48.042;12.240;2022-10-14T02:32:19;11.70;;;9.60;;
12756;SDS011;31601;48.042;12.240;2022-10-14T02:34:49;12.73;;;10.77;;
12756;SDS011;31601;48.042;12.240;2022-10-14T02:37:18;13.00;;;9.23;;
12756;SDS011;31601;48.042;12.240;2022-10-14T02:39:48;12.80;;;10.43;;
12756;SDS011;31601;48.042;12.240;2022-10-14T02:42:20;12.60;;;8.63;;
12756;SDS011;31601;48.042;12.240;2022-10-14T02:44:50;10.63;;;8.77;;
12756;SDS011;31601;48.042;12.240;2022-10-14T02:47:19;14.10;;;8.57;;
12756;SDS011;31601;48.042;12.240;2022-10-14T02:49:46;11.83;;;8.60;;
12756;SDS011;31601;48.042;12.240;2022-10-14T02:52:12;12.67;;;8.73;;
12756;SDS011;31601;48.042;12.240;2022-10-14T02:54:39;10.73;;;9.53;;
12756;SDS011;31601;48.042;12.240;2022-10-14T02:57:05;11.07;;;9.10;;
12756;SDS011;31601;48.042;12.240;2022-10-14T02:59:32;11.83;;;9.20;;
12756;SDS011;31601;48.042;12.240;2022-10-14T03:01:58;16.20;;;9.20;;
12756;SDS011;31601;48.042;12.240;2022-10-14T03:04:26;13.07;;;9.73;;
12756;SDS011;31601;48.042;12.240;2022-10-14T03:06:52;11.57;;;8.97;;
12756;SDS011;31601;48.042;12.240;2022-10-14T03:09:19;14.93;;;9.50;;
12756;SDS011;31601;48.042;12.240;2022-10-14T03:11:45;14.97;;;9.30;;
12756;SDS011;31601;48.042;12.240;2022-10-14T03:14:12;16.80;;;9.60;;
12756;SDS011;31601;48.042;12.240;2022-10-14T03:16:39;15.63;;;9.33;;
12756;SDS011;31601;48.042;12.240;2022-10-14T03:19:05;12.83;;;8.47;;
12756;SDS011;31601;48.042;12.240;2022-10-14T03:21:33;12.50;;;9.07;;
12756;SDS011;31601;48.042;12.240;2022-10-14T03:24:00;14.00;;;8.93;;
12756;SDS011;31601;48.042;12.240;2022-10-14T03:26:26;9.93;;;8.17;;
12756;SDS011;31601;48.042;12.240;2022-10-14T03:28:53;9.00;;;8.10;;
12756;SDS011;31601;48.042;12.240;2022-10-14T03:31:20;14.30;;;9.17;;
12756;SDS011;31601;48.042;12.240;2022-10-14T03:33:46;11.87;;;8.37;;
12756;SDS011;31601;48.042;12.240;2022-10-14T03:36:13;10.53;;;8.30;;
12756;SDS011;31601;48.042;12.240;2022-10-14T03:38:41;10.30;;;8.30;;
12756;SDS011;31601;48.042;12.240;2022-10-14T03:41:07;12.90;;;7.90;;
12756;SDS011;31601;48.042;12.240;2022-10-14T03:43:34;11.23;;;8.20;;
12756;SDS011;31601;48.042;12.240;2022-10-14T03:46:00;10.50;;;7.67;;
12756;SDS011;31601;48.042;12.240;2022-10-14T03:48:27;9.53;;;7.50;;
12756;SDS011;31601;48.042;12.240;2022-10-14T03:50:53;11.47;;;7.30;;
12756;SDS011;31601;48.042;12.240;2022-10-14T03:53:20;8.87;;;7.27;;
12756;SDS011;31601;48.042;12.240;2022-10-14T03:55:48;9.20;;;7.50;;
12756;SDS011;31601;48.042;12.240;2022-10-14T03:58:14;11.37;;;7.13;;
12756;SDS011;31601;48.042;12.240;2022-10-14T04:00:41;9.90;;;6.37;;
12756;SDS011;31601;48.042;12.240;2022-10-14T04:03:09;7.13;;;6.43;;
12756;SDS011;31601;48.042;12.240;2022-10-14T04:05:35;8.97;;;7.07;;
12756;SDS011;31601;48.042;12.240;2022-10-14T04:08:02;8.87;;;5.97;;
12756;SDS011;31601;48.042;12.240;2022-10-14T04:10:29;7.93;;;5.33;;
12756;SDS011;31601;48.042;12.240;2022-10-14T04:12:57;8.40;;;5.43;;
12756;SDS011;31601;48.042;12.240;2022-10-14T04:15:23;5.50;;;4.73;;
12756;SDS011;31601;48.042;12.240;2022-10-14T04:17:50;6.50;;;5.03;;
12756;SDS011;31601;48.042;12.240;2022-10-14T04:20:17;5.77;;;4.33;;
12756;SDS011;31601;48.042;12.240;2022-10-14T04:22:43;9.03;;;5.33;;
12756;SDS011;31601;48.042;12.240;2022-10-14T04:25:10;7.57;;;4.47;;
12756;SDS011;31601;48.042;12.240;2022-10-14T04:27:36;7.63;;;4.73;;
12756;SDS011;31601;48.042;12.240;2022-10-14T04:30:04;7.60;;;4.63;;
12756;SDS011;31601;48.042;12.240;2022-10-14T04:32:32;6.70;;;4.53;;
12756;SDS011;31601;48.042;12.240;2022-10-14T04:34:58;9.10;;;4.43;;
12756;SDS011;31601;48.042;12.240;2022-10-14T04:37:25;11.37;;;5.00;;
12756;SDS011;31601;48.042;12.240;2022-10-14T04:39:53;10.37;;;4.83;;
12756;SDS011;31601;48.042;12.240;2022-10-14T04:42:19;6.63;;;4.57;;
12756;SDS011;31601;48.042;12.240;2022-10-14T04:44:46;6.30;;;4.40;;
12756;SDS011;31601;48.042;12.240;2022-10-14T04:47:13;7.87;;;4.50;;
12756;SDS011;31601;48.042;12.240;2022-10-14T04:49:40;8.30;;;4.37;;
12756;SDS011;31601;48.042;12.240;2022-10-14T04:52:06;6.73;;;4.67;;
12756;SDS011;31601;48.042;12.240;2022-10-14T04:54:33;5.30;;;4.73;;
12756;SDS011;31601;48.042;12.240;2022-10-14T04:56:59;6.10;;;4.80;;
12756;SDS011;31601;48.042;12.240;2022-10-14T04:59:26;4.90;;;4.40;;
12756;SDS011;31601;48.042;12.240;2022-10-14T05:01:53;7.07;;;4.90;;
12756;SDS011;31601;48.042;12.240;2022-10-14T05:04:21;8.03;;;4.93;;
12756;SDS011;31601;48.042;12.240;2022-10-14T05:06:47;6.50;;;4.37;;
12756;SDS011;31601;48.042;12.240;2022-10-14T05:09:14;4.67;;;3.60;;
12756;SDS011;31601;48.042;12.240;2022-10-14T05:11:41;6.20;;;4.00;;
12756;SDS011;31601;48.042;12.240;2022-10-14T05:14:08;7.50;;;4.03;;
12756;SDS011;31601;48.042;12.240;2022-10-14T05:16:34;8.13;;;4.20;;
12756;SDS011;31601;48.042;12.240;2022-10-14T05:19:01;5.03;;;3.70;;
12756;SDS011;31601;48.042;12.240;2022-10-14T05:21:29;7.93;;;4.00;;
12756;SDS011;31601;48.042;12.240;2022-10-14T05:23:55;5.07;;;3.20;;
12756;SDS011;31601;48.042;12.240;2022-10-14T05:26:22;4.97;;;3.70;;
12756;SDS011;31601;48.042;12.240;2022-10-14T05:28:50;4.10;;;3.70;;
12756;SDS011;31601;48.042;12.240;2022-10-14T05:31:16;4.80;;;3.37;;
12756;SDS011;31601;48.042;12.240;2022-10-14T05:33:43;6.40;;;4.30;;
12756;SDS011;31601;48.042;12.240;2022-10-14T05:36:09;5.60;;;3.87;;
12756;SDS011;31601;48.042;12.240;2022-10-14T05:38:37;7.80;;;4.50;;
12756;SDS011;31601;48.042;12.240;2022-10-14T05:41:04;10.77;;;4.83;;
12756;SDS011;31601;48.042;12.240;2022-10-14T05:43:30;7.27;;;4.57;;
12756;SDS011;31601;48.042;12.240;2022-10-14T05:45:57;9.00;;;4.40;;
12756;SDS011;31601;48.042;12.240;2022-10-14T05:48:23;6.63;;;3.87;;
12756;SDS011;31601;48.042;12.240;2022-10-14T05:50:50;4.57;;;3.57;;
12756;SDS011;31601;48.042;12.240;2022-10-14T05:53:17;5.93;;;4.37;;
12756;SDS011;31601;48.042;12.240;2022-10-14T05:55:45;5.33;;;3.93;;
12756;SDS011;31601;48.042;12.240;2022-10-14T05:58:11;4.47;;;3.90;;
12756;SDS011;31601;48.042;12.240;2022-10-14T06:00:38;5.47;;;4.00;;
12756;SDS011;31601;48.042;12.240;2022-10-14T06:03:04;5.67;;;4.20;;
12756;SDS011;31601;48.042;12.240;2022-10-14T06:05:33;5.80;;;4.10;;
12756;SDS011;31601;48.042;12.240;2022-10-14T06:08:00;6.00;;;4.23;;
12756;SDS011;31601;48.042;12.240;2022-10-14T06:10:27;4.47;;;3.57;;
12756;SDS011;31601;48.042;12.240;2022-10-14T06:12:55;5.00;;;4.00;;
12756;SDS011;31601;48.042;12.240;2022-10-14T06:15:22;6.20;;;3.90;;
12756;SDS011;31601;48.042;12.240;2022-10-14T06:17:48;12.13;;;7.63;;
12756;SDS011;31601;48.042;12.240;2022-10-14T06:20:15;7.57;;;6.77;;
12756;SDS011;31601;48.042;12.240;2022-10-14T06:22:42;10.63;;;7.53;;
12756;SDS011;31601;48.042;12.240;2022-10-14T06:25:09;7.67;;;6.03;;
12756;SDS011;31601;48.042;12.240;2022-10-14T06:27:36;6.90;;;5.00;;
12756;SDS011;31601;48.042;12.240;2022-10-14T06:30:04;8.27;;;6.57;;
12756;SDS011;31601;48.042;12.240;2022-10-14T06:32:31;5.83;;;5.23;;
12756;SDS011;31601;48.042;12.240;2022-10-14T06:34:58;8.37;;;5.37;;
12756;SDS011;31601;48.042;12.240;2022-10-14T06:37:24;6.77;;;5.27;;
12756;SDS011;31601;48.042;12.240;2022-10-14T06:39:51;9.07;;;5.37;;
12756;SDS011;31601;48.042;12.240;2022-10-14T06:42:17;9.57;;;5.70;;
12756;SDS011;31601;48.042;12.240;2022-10-14T06:44:44;7.30;;;4.60;;
12756;SDS011;31601;48.042;12.240;2022-10-14T06:47:12;9.03;;;5.37;;
12756;SDS011;31601;48.042;12.240;2022-10-14T06:49:39;5.70;;;4.87;;
12756;SDS011;31601;48.042;12.240;2022-10-14T06:52:05;6.07;;;4.43;;
12756;SDS011;31601;48.042;12.240;2022-10-14T06:54:32;7.10;;;6.40;;
12756;SDS011;31601;48.042;12.240;2022-10-14T06:56:59;5.43;;;4.70;;
12756;SDS011;31601;48.042;12.240;2022-10-14T06:59:25;5.87;;;4.00;;
12756;SDS011;31601;48.042;12.240;2022-10-14T07:01:53;4.60;;;3.20;;
12756;SDS011;31601;48.042;12.240;2022-10-14T07:04:21;5.17;;;3.70;;
12756;SDS011;31601;48.042;12.240;2022-10-14T07:06:48;6.57;;;3.20;;
12756;SDS011;31601;48.042;12.240;2022-10-14T07:09:15;6.40;;;3.37;;
12756;SDS011;31601;48.042;12.240;2022-10-14T07:11:43;5.20;;;3.50;;
12756;SDS011;31601;48.042;12.240;2022-10-14T07:14:10;4.07;;;3.30;;
12756;SDS011;31601;48.042;12.240;2022-10-14T07:16:37;3.87;;;3.13;;
12756;SDS011;31601;48.042;12.240;2022-10-14T07:19:03;3.50;;;3.20;;
12756;SDS011;31601;48.042;12.240;2022-10-14T07:21:31;5.87;;;3.00;;
12756;SDS011;31601;48.042;12.240;2022-10-14T07:23:58;3.03;;;2.73;;
12756;SDS011;31601;48.042;12.240;2022-10-14T07:26:24;6.53;;;3.27;;
12756;SDS011;31601;48.042;12.240;2022-10-14T07:28:51;7.60;;;3.73;;
12756;SDS011;31601;48.042;12.240;2022-10-14T07:31:18;6.03;;;3.83;;
12756;SDS011;31601;48.042;12.240;2022-10-14T07:33:44;3.20;;;2.90;;
12756;SDS011;31601;48.042;12.240;2022-10-14T07:36:11;6.87;;;3.20;;
12756;SDS011;31601;48.042;12.240;2022-10-14T07:38:41;4.33;;;2.80;;
12756;SDS011;31601;48.042;12.240;2022-10-14T07:41:09;5.37;;;3.47;;
12756;SDS011;31601;48.042;12.240;2022-10-14T07:43:41;3.17;;;2.60;;
12756;SDS011;31601;48.042;12.240;2022-10-14T07:46:08;6.53;;;2.63;;
12756;SDS011;31601;48.042;12.240;2022-10-14T07:48:36;5.20;;;2.63;;
12756;SDS011;31601;48.042;12.240;2022-10-14T07:51:04;4.77;;;2.77;;
12756;SDS011;31601;48.042;12.240;2022-10-14T07:53:30;5.07;;;2.70;;
12756;SDS011;31601;48.042;12.240;2022-10-14T07:55:58;5.47;;;2.93;;
12756;SDS011;31601;48.042;12.240;2022-10-14T07:58:25;7.43;;;2.97;;
12756;SDS011;31601;48.042;12.240;2022-10-14T08:00:53;6.23;;;3.13;;
12756;SDS011;31601;48.042;12.240;2022-10-14T08:03:21;6.33;;;2.70;;
12756;SDS011;31601;48.042;12.240;2022-10-14T08:05:48;3.73;;;2.53;;
12756;SDS011;31601;48.042;12.240;2022-10-14T08:08:15;3.33;;;2.47;;
12756;SDS011;31601;48.042;12.240;2022-10-14T08:10:43;3.67;;;2.70;;
12756;SDS011;31601;48.042;12.240;2022-10-14T08:13:11;3.40;;;2.70;;
12756;SDS011;31601;48.042;12.240;2022-10-14T08:15:38;5.07;;;3.07;;
12756;SDS011;31601;48.042;12.240;2022-10-14T08:18:08;5.23;;;2.97;;
12756;SDS011;31601;48.042;12.240;2022-10-14T08:20:35;4.00;;;2.80;;
12756;SDS011;31601;48.042;12.240;2022-10-14T08:23:02;6.50;;;4.33;;
12756;SDS011;31601;48.042;12.240;2022-10-14T08:25:28;7.50;;;4.27;;
12756;SDS011;31601;48.042;12.240;2022-10-14T08:27:55;5.87;;;4.60;;
12756;SDS011;31601;48.042;12.240;2022-10-14T08:30:24;7.80;;;4.20;;
12756;SDS011;31601;48.042;12.240;2022-10-14T08:32:50;6.37;;;2.60;;
12756;SDS011;31601;48.042;12.240;2022-10-14T08:35:17;3.97;;;2.23;;
12756;SDS011;31601;48.042;12.240;2022-10-14T08:37:43;3.57;;;2.50;;
12756;SDS011;31601;48.042;12.240;2022-10-14T08:40:10;2.33;;;2.13;;
12756;SDS011;31601;48.042;12.240;2022-10-14T08:42:41;4.57;;;2.10;;
12756;SDS011;31601;48.042;12.240;2022-10-14T08:45:16;3.23;;;2.20;;
12756;SDS011;31601;48.042;12.240;2022-10-14T08:47:50;3.93;;;1.97;;
12756;SDS011;31601;48.042;12.240;2022-10-14T08:50:24;2.47;;;2.03;;
12756;SDS011;31601;48.042;12.240;2022-10-14T08:52:54;4.37;;;1.90;;
12756;SDS011;31601;48.042;12.240;2022-10-14T08:55:26;4.33;;;2.43;;
12756;SDS011;31601;48.042;12.240;2022-10-14T08:57:58;2.77;;;1.97;;
12756;SDS011;31601;48.042;12.240;2022-10-14T09:00:29;4.97;;;2.30;;
12756;SDS011;31601;48.042;12.240;2022-10-14T09:02:59;3.10;;;1.90;;
12756;SDS011;31601;48.042;12.240;2022-10-14T09:05:36;3.23;;;2.60;;
12756;SDS011;31601;48.042;12.240;2022-10-14T09:08:04;5.20;;;2.53;;
12756;SDS011;31601;48.042;12.240;2022-10-14T09:10:36;2.93;;;1.80;;
12756;SDS011;31601;48.042;12.240;2022-10-14T09:13:07;2.73;;;1.63;;
12756;SDS011;31601;48.042;12.240;2022-10-14T09:15:37;3.63;;;1.80;;
12756;SDS011;31601;48.042;12.240;2022-10-14T09:18:10;4.97;;;2.00;;
12756;SDS011;31601;48.042;12.240;2022-10-14T09:20:46;4.80;;;2.03;;
12756;SDS011;31601;48.042;12.240;2022-10-14T09:23:14;2.47;;;1.90;;
12756;SDS011;31601;48.042;12.240;2022-10-14T09:25:45;3.40;;;1.83;;
12756;SDS011;31601;48.042;12.240;2022-10-14T09:28:20;3.07;;;2.00;;
12756;SDS011;31601;48.042;12.240;2022-10-14T09:30:50;3.10;;;2.00;;
12756;SDS011;31601;48.042;12.240;2022-10-14T09:33:18;1.93;;;1.70;;
12756;SDS011;31601;48.042;12.240;2022-10-14T09:35:53;2.20;;;1.77;;
12756;SDS011;31601;48.042;12.240;2022-10-14T09:38:22;2.50;;;1.77;;
12756;SDS011;31601;48.042;12.240;2022-10-14T09:40:51;3.43;;;2.10;;
12756;SDS011;31601;48.042;12.240;2022-10-14T09:43:21;1.53;;;1.40;;
12756;SDS011;31601;48.042;12.240;2022-10-14T09:45:53;5.53;;;1.93;;
12756;SDS011;31601;48.042;12.240;2022-10-14T09:48:30;2.80;;;1.23;;
12756;SDS011;31601;48.042;12.240;2022-10-14T09:51:02;3.37;;;1.30;;
12756;SDS011;31601;48.042;12.240;2022-10-14T09:53:32;3.80;;;1.40;;
12756;SDS011;31601;48.042;12.240;2022-10-14T09:56:03;5.33;;;1.40;;
12756;SDS011;31601;48.042;12.240;2022-10-14T09:58:32;1.80;;;1.00;;
12756;SDS011;31601;48.042;12.240;2022-10-14T10:01:03;1.93;;;1.10;;
12756;SDS011;31601;48.042;12.240;2022-10-14T10:03:38;1.70;;;1.27;;
12756;SDS011;31601;48.042;12.240;2022-10-14T10:06:05;3.63;;;1.43;;
12756;SDS011;31601;48.042;12.240;2022-10-14T10:08:34;1.90;;;1.20;;
12756;SDS011;31601;48.042;12.240;2022-10-14T10:11:02;2.57;;;1.30;;
12756;SDS011;31601;48.042;12.240;2022-10-14T10:13:34;1.40;;;1.10;;
12756;SDS011;31601;48.042;12.240;2022-10-14T10:16:16;3.40;;;1.07;;
12756;SDS011;31601;48.042;12.240;2022-10-14T10:18:46;2.13;;;1.40;;
12756;SDS011;31601;48.042;12.240;2022-10-14T10:21:14;2.60;;;1.60;;
12756;SDS011;31601;48.042;12.240;2022-10-14T10:23:54;4.53;;;1.30;;
12756;SDS011;31601;48.042;12.240;2022-10-14T10:26:23;2.37;;;1.70;;
12756;SDS011;31601;48.042;12.240;2022-10-14T10:28:55;2.30;;;1.77;;
12756;SDS011;31601;48.042;12.240;2022-10-14T10:37:23;2.58;;;1.40;;
12756;SDS011;31601;48.042;12.240;2022-10-14T10:40:05;3.20;;;1.60;;
12756;SDS011;31601;48.042;12.240;2022-10-14T10:42:46;2.08;;;1.17;;
12756;SDS011;31601;48.042;12.240;2022-10-14T10:45:23;2.38;;;1.20;;
12756;SDS011;31601;48.042;12.240;2022-10-14T10:48:05;1.63;;;1.20;;
12756;SDS011;31601;48.042;12.240;2022-10-14T10:50:44;2.22;;;0.90;;
12756;SDS011;31601;48.042;12.240;2022-10-14T10:53:39;2.20;;;0.80;;
12756;SDS011;31601;48.042;12.240;2022-10-14T10:56:17;1.88;;;0.80;;
12756;SDS011;31601;48.042;12.240;2022-10-14T10:59:04;1.40;;;1.08;;
12756;SDS011;31601;48.042;12.240;2022-10-14T11:02:09;1.10;;;0.90;;
12756;SDS011;31601;48.042;12.240;2022-10-14T11:04:58;2.45;;;0.80;;
12756;SDS011;31601;48.042;12.240;2022-10-14T11:07:38;1.52;;;0.75;;
12756;SDS011;31601;48.042;12.240;2022-10-14T11:10:33;2.28;;;1.17;;
12756;SDS011;31601;48.042;12.240;2022-10-14T11:13:27;1.42;;;0.90;;
12756;SDS011;31601;48.042;12.240;2022-10-14T11:16:03;3.08;;;1.08;;
12756;SDS011;31601;48.042;12.240;2022-10-14T11:18:38;3.15;;;0.90;;
12756;SDS011;31601;48.042;12.240;2022-10-14T11:21:16;1.45;;;0.80;;
12756;SDS011;31601;48.042;12.240;2022-10-14T11:23:55;1.20;;;0.80;;
12756;SDS011;31601;48.042;12.240;2022-10-14T11:26:32;1.13;;;0.98;;
12756;SDS011;31601;48.042;12.240;2022-10-14T11:29:14;1.13;;;0.70;;
12756;SDS011;31601;48.042;12.240;2022-10-14T11:32:03;2.78;;;0.88;;
12756;SDS011;31601;48.042;12.240;2022-10-14T11:34:41;1.67;;;0.93;;
12756;SDS011;31601;48.042;12.240;2022-10-14T11:37:13;5.53;;;0.75;;
12756;SDS011;31601;48.042;12.240;2022-10-14T11:39:48;1.52;;;1.05;;
12756;SDS011;31601;48.042;12.240;2022-10-14T11:42:23;4.47;;;0.98;;
12756;SDS011;31601;48.042;12.240;2022-10-14T11:44:57;1.75;;;0.70;;
12756;SDS011;31601;48.042;12.240;2022-10-14T11:47:32;2.10;;;0.50;;
12756;SDS011;31601;48.042;12.240;2022-10-14T11:50:03;1.90;;;0.90;;
12756;SDS011;31601;48.042;12.240;2022-10-14T11:52:41;4.75;;;1.00;;
12756;SDS011;31601;48.042;12.240;2022-10-14T11:55:13;3.28;;;0.80;;
12756;SDS011;31601;48.042;12.240;2022-10-14T11:57:44;1.33;;;0.50;;
12756;SDS011;31601;48.042;12.240;2022-10-14T12:00:14;3.05;;;0.60;;
12756;SDS011;31601;48.042;12.240;2022-10-14T12:03:20;2.15;;;0.80;;
12756;SDS011;31601;48.042;12.240;2022-10-14T12:05:54;0.55;;;0.50;;
12756;SDS011;31601;48.042;12.240;2022-10-14T12:08:29;1.67;;;0.68;;
12756;SDS011;31601;48.042;12.240;2022-10-14T12:11:02;0.93;;;0.70;;
12756;SDS011;31601;48.042;12.240;2022-10-14T12:13:32;0.77;;;0.52;;
12756;SDS011;31601;48.042;12.240;2022-10-14T12:16:13;1.50;;;0.68;;
12756;SDS011;31601;48.042;12.240;2022-10-14T12:18:42;0.95;;;0.70;;
12756;SDS011;31601;48.042;12.240;2022-10-14T12:21:12;0.98;;;0.50;;
12756;SDS011;31601;48.042;12.240;2022-10-14T12:23:44;0.50;;;0.50;;
12756;SDS011;31601;48.042;12.240;2022-10-14T12:26:21;2.47;;;0.88;;
12756;SDS011;31601;48.042;12.240;2022-10-14T12:29:03;1.55;;;0.70;;
12756;SDS011;31601;48.042;12.240;2022-10-14T12:31:34;2.67;;;1.02;;
12756;SDS011;31601;48.042;12.240;2022-10-14T12:36:59;2.25;;;0.70;;
12756;SDS011;31601;48.042;12.240;2022-10-14T12:39:32;1.10;;;0.55;;
12756;SDS011;31601;48.042;12.240;2022-10-14T12:42:02;2.90;;;0.63;;
12756;SDS011;31601;48.042;12.240;2022-10-14T12:44:32;2.15;;;1.13;;
12756;SDS011;31601;48.042;12.240;2022-10-14T12:47:06;1.40;;;0.73;;
12756;SDS011;31601;48.042;12.240;2022-10-14T12:49:44;2.60;;;0.88;;
12756;SDS011;31601;48.042;12.240;2022-10-14T12:52:13;1.05;;;0.90;;
12756;SDS011;31601;48.042;12.240;2022-10-14T12:54:46;1.30;;;0.73;;
12756;SDS011;31601;48.042;12.240;2022-10-14T12:57:19;4.97;;;1.20;;
12756;SDS011;31601;48.042;12.240;2022-10-14T12:59:52;4.50;;;0.80;;
12756;SDS011;31601;48.042;12.240;2022-10-14T13:02:23;2.58;;;1.00;;
12756;SDS011;31601;48.042;12.240;2022-10-14T13:04:56;1.52;;;1.02;;
12756;SDS011;31601;48.042;12.240;2022-10-14T13:07:29;2.63;;;0.73;;
12756;SDS011;31601;48.042;12.240;2022-10-14T13:19:37;0.57;;;0.57;;
12756;SDS011;31601;48.042;12.240;2022-10-14T13:22:33;2.00;;;0.80;;
12756;SDS011;31601;48.042;12.240;2022-10-14T13:25:02;1.73;;;0.88;;
12756;SDS011;31601;48.042;12.240;2022-10-14T13:27:48;1.60;;;0.82;;
12756;SDS011;31601;48.042;12.240;2022-10-14T13:30:25;2.25;;;0.70;;
12756;SDS011;31601;48.042;12.240;2022-10-14T13:32:59;2.20;;;0.70;;
12756;SDS011;31601;48.042;12.240;2022-10-14T13:35:40;2.03;;;0.75;;
12756;SDS011;31601;48.042;12.240;2022-10-14T13:38:14;2.00;;;0.90;;
12756;SDS011;31601;48.042;12.240;2022-10-14T13:40:44;1.90;;;0.80;;
12756;SDS011;31601;48.042;12.240;2022-10-14T13:43:14;0.88;;;0.60;;
12756;SDS011;31601;48.042;12.240;2022-10-14T13:45:45;0.95;;;0.82;;
12756;SDS011;31601;48.042;12.240;2022-10-14T13:48:14;2.10;;;1.00;;
12756;SDS011;31601;48.042;12.240;2022-10-14T13:50:42;1.23;;;0.80;;
12756;SDS011;31601;48.042;12.240;2022-10-14T13:53:13;0.73;;;0.70;;
12756;SDS011;31601;48.042;12.240;2022-10-14T13:55:42;2.30;;;0.73;;
12756;SDS011;31601;48.042;12.240;2022-10-14T13:58:10;2.10;;;1.00;;
12756;SDS011;31601;48.042;12.240;2022-10-14T14:00:40;0.95;;;0.68;;
12756;SDS011;31601;48.042;12.240;2022-10-14T14:03:14;2.78;;;0.80;;
12756;SDS011;31601;48.042;12.240;2022-10-14T14:05:46;1.60;;;0.70;;
12756;SDS011;31601;48.042;12.240;2022-10-14T14:08:15;3.33;;;0.90;;
12756;SDS011;31601;48.042;12.240;2022-10-14T14:10:51;0.70;;;0.60;;
12756;SDS011;31601;48.042;12.240;2022-10-14T14:13:19;1.83;;;0.63;;
12756;SDS011;31601;48.042;12.240;2022-10-14T14:15:49;1.50;;;0.75;;
12756;SDS011;31601;48.042;12.240;2022-10-14T14:18:33;1.33;;;0.75;;
12756;SDS011;31601;48.042;12.240;2022-10-14T14:21:02;3.78;;;0.70;;
12756;SDS011;31601;48.042;12.240;2022-10-14T14:23:29;1.63;;;0.60;;
12756;SDS011;31601;48.042;12.240;2022-10-14T14:25:55;1.58;;;0.80;;
12756;SDS011;31601;48.042;12.240;2022-10-14T14:28:22;2.35;;;0.80;;
12756;SDS011;31601;48.042;12.240;2022-10-14T14:30:55;2.13;;;0.60;;
12756;SDS011;31601;48.042;12.240;2022-10-14T14:33:24;2.47;;;0.80;;
12756;SDS011;31601;48.042;12.240;2022-10-14T14:35:55;1.00;;;0.63;;
12756;SDS011;31601;48.042;12.240;2022-10-14T14:38:25;0.93;;;0.68;;
12756;SDS011;31601;48.042;12.240;2022-10-14T14:41:00;0.65;;;0.65;;
12756;SDS011;31601;48.042;12.240;2022-10-14T14:43:28;1.52;;;0.70;;
12756;SDS011;31601;48.042;12.240;2022-10-14T14:45:57;1.85;;;0.73;;
12756;SDS011;31601;48.042;12.240;2022-10-14T14:48:28;1.67;;;0.90;;
12756;SDS011;31601;48.042;12.240;2022-10-14T14:50:55;1.33;;;0.93;;
12756;SDS011;31601;48.042;12.240;2022-10-14T14:53:23;2.70;;;0.95;;
12756;SDS011;31601;48.042;12.240;2022-10-14T14:55:58;4.07;;;1.00;;
12756;SDS011;31601;48.042;12.240;2022-10-14T14:58:28;5.50;;;1.00;;
12756;SDS011;31601;48.042;12.240;2022-10-14T15:00:59;2.92;;;1.05;;
12756;SDS011;31601;48.042;12.240;2022-10-14T15:03:26;2.70;;;0.80;;
12756;SDS011;31601;48.042;12.240;2022-10-14T15:05:57;1.88;;;0.90;;